createdAt,value
2023-02-23T00:01:56.075Z,11.60
2023-02-23T00:04:25.425Z,11.50
2023-02-23T00:06:55.387Z,11.60
2023-02-23T00:09:28.016Z,11.50
2023-02-23T00:11:58.272Z,11.50
2023-02-23T00:14:28.353Z,11.50
2023-02-23T00:16:57.972Z,11.50
2023-02-23T00:19:26.540Z,11.50
2023-02-23T00:21:58.776Z,11.50
2023-02-23T00:24:27.982Z,11.50
2023-02-23T00:26:56.294Z,11.50
2023-02-23T00:29:25.840Z,11.50
2023-02-23T00:31:56.245Z,11.60
2023-02-23T00:34:24.496Z,11.50
2023-02-23T00:36:55.324Z,11.60
2023-02-23T00:39:29.272Z,11.60
2023-02-23T00:42:02.540Z,11.50
2023-02-23T00:44:32.426Z,11.50
2023-02-23T00:47:00.925Z,11.50
2023-02-23T00:49:29.172Z,11.50
2023-02-23T00:51:57.359Z,11.40
2023-02-23T00:54:27.112Z,11.50
2023-02-23T00:56:55.192Z,11.50
2023-02-23T00:59:24.448Z,11.50
2023-02-23T01:01:52.791Z,11.40
2023-02-23T01:04:24.047Z,11.30
2023-02-23T01:06:52.195Z,11.30
2023-02-23T01:09:28.205Z,11.20
2023-02-23T01:12:01.621Z,11.20
2023-02-23T01:14:31.212Z,11.20
2023-02-23T01:16:59.740Z,11.20
2023-02-23T01:19:28.612Z,11.20
2023-02-23T01:21:56.809Z,11.10
2023-02-23T01:24:24.982Z,11.20
2023-02-23T01:26:53.868Z,11.10
2023-02-23T01:29:23.529Z,11.10
2023-02-23T01:31:52.278Z,11.00
2023-02-23T01:34:22.572Z,11.00
2023-02-23T01:36:52.327Z,11.00
2023-02-23T01:39:21.709Z,11.00
2023-02-23T01:41:51.920Z,11.00
2023-02-23T01:44:58.405Z,11.00
2023-02-23T01:47:28.155Z,11.00
2023-02-23T01:49:56.309Z,11.00
2023-02-23T01:52:24.455Z,11.00
2023-02-23T01:54:55.960Z,11.00
2023-02-23T01:57:26.995Z,11.00
2023-02-23T01:59:56.018Z,11.00
2023-02-23T02:02:33.441Z,11.00
2023-02-23T02:05:04.897Z,11.00
2023-02-23T02:07:35.533Z,11.00
2023-02-23T02:10:39.665Z,11.00
2023-02-23T02:13:10.453Z,11.00
2023-02-23T02:15:53.869Z,10.90
2023-02-23T02:18:30.703Z,10.90
2023-02-23T02:21:16.491Z,10.90
2023-02-23T02:24:25.347Z,10.90
2023-02-23T02:27:08.568Z,10.90
2023-02-23T02:30:10.469Z,10.90
2023-02-23T02:33:11.152Z,10.80
2023-02-23T02:36:18.577Z,10.80
2023-02-23T02:38:56.612Z,10.80
2023-02-23T02:41:36.926Z,10.80
2023-02-23T02:44:13.144Z,10.80
2023-02-23T02:46:48.000Z,10.80
2023-02-23T02:49:21.606Z,10.80
2023-02-23T02:51:56.357Z,10.80
2023-02-23T02:54:31.612Z,10.90
2023-02-23T02:57:04.437Z,10.90
2023-02-23T03:00:00.701Z,10.90
2023-02-23T03:02:47.493Z,10.90
2023-02-23T03:05:34.869Z,10.90
2023-02-23T03:08:29.249Z,10.90
2023-02-23T03:11:22.266Z,10.90
2023-02-23T03:14:24.517Z,10.90
2023-02-23T03:17:18.321Z,10.90
2023-02-23T03:20:13.550Z,10.90
2023-02-23T03:23:07.474Z,10.90
2023-02-23T03:26:06.053Z,10.90
2023-02-23T03:28:57.118Z,10.90
2023-02-23T03:31:52.187Z,10.90
2023-02-23T03:34:43.687Z,10.90
2023-02-23T03:37:35.555Z,10.90
2023-02-23T03:40:26.805Z,10.90
2023-02-23T03:43:15.659Z,10.90
2023-02-23T03:46:05.080Z,10.90
2023-02-23T03:48:54.893Z,10.90
2023-02-23T03:51:43.449Z,10.80
2023-02-23T03:54:34.061Z,10.90
2023-02-23T03:57:24.470Z,10.80
2023-02-23T04:00:13.843Z,10.80
2023-02-23T04:03:02.367Z,10.80
2023-02-23T04:05:49.621Z,10.80
2023-02-23T04:08:38.368Z,10.80
2023-02-23T04:11:33.065Z,10.80
2023-02-23T04:14:05.257Z,10.80
2023-02-23T04:16:33.341Z,10.80
2023-02-23T04:19:02.953Z,10.80
2023-02-23T04:21:31.090Z,10.70
2023-02-23T04:23:59.689Z,10.70
2023-02-23T04:26:27.814Z,10.70
2023-02-23T04:28:55.939Z,10.70
2023-02-23T04:31:25.356Z,10.70
2023-02-23T04:33:53.799Z,10.70
2023-02-23T04:36:24.765Z,10.80
2023-02-23T04:38:52.894Z,10.80
2023-02-23T04:41:21.327Z,10.80
2023-02-23T04:43:49.681Z,10.80
2023-02-23T04:46:18.047Z,10.80
2023-02-23T04:48:46.237Z,10.90
2023-02-23T04:51:14.332Z,10.80
2023-02-23T04:53:44.116Z,10.90
2023-02-23T04:56:12.426Z,10.80
2023-02-23T04:58:40.573Z,10.80
2023-02-23T05:01:09.819Z,10.80
2023-02-23T05:03:38.090Z,10.70
2023-02-23T05:06:06.663Z,10.60
2023-02-23T05:08:34.852Z,10.40
2023-02-23T05:11:04.418Z,10.10
2023-02-23T05:13:33.143Z,10.20
2023-02-23T05:16:01.399Z,10.30
2023-02-23T05:18:29.792Z,10.40
2023-02-23T05:21:03.950Z,10.50
2023-02-23T05:23:32.156Z,10.60
2023-02-23T05:26:03.980Z,10.60
2023-02-23T05:28:34.595Z,10.20
2023-02-23T05:31:04.643Z,10.40
2023-02-23T05:33:33.002Z,10.40
2023-02-23T05:36:01.598Z,10.10
2023-02-23T05:38:29.733Z,9.80
2023-02-23T05:40:57.885Z,10.10
2023-02-23T05:43:26.855Z,10.20
2023-02-23T05:45:56.830Z,10.30
2023-02-23T05:48:24.942Z,10.40
2023-02-23T05:50:53.135Z,10.40
2023-02-23T05:53:21.588Z,10.50
2023-02-23T05:55:49.699Z,10.50
2023-02-23T05:58:17.858Z,10.50
2023-02-23T06:00:46.658Z,10.50
2023-02-23T06:03:16.610Z,10.50
2023-02-23T06:05:50.111Z,10.50
2023-02-23T06:08:18.269Z,10.50
2023-02-23T06:10:47.126Z,10.50
2023-02-23T06:13:16.559Z,10.50
2023-02-23T06:15:45.262Z,10.50
2023-02-23T06:18:15.349Z,10.50
2023-02-23T06:20:43.583Z,10.50
2023-02-23T06:23:12.337Z,10.50
2023-02-23T06:25:40.843Z,10.50
2023-02-23T06:28:10.660Z,10.50
2023-02-23T06:30:39.728Z,10.50
2023-02-23T06:33:08.476Z,10.50
2023-02-23T06:35:38.548Z,10.50
2023-02-23T06:38:07.454Z,10.40
2023-02-23T06:40:35.683Z,10.50
2023-02-23T06:43:05.330Z,10.50
2023-02-23T06:45:34.027Z,10.40
2023-02-23T06:48:02.518Z,10.40
2023-02-23T06:50:31.023Z,10.50
2023-02-23T06:53:00.548Z,10.40
2023-02-23T06:55:28.805Z,10.40
2023-02-23T06:57:56.994Z,10.40
2023-02-23T07:00:25.445Z,10.40
2023-02-23T07:02:53.736Z,10.40
2023-02-23T07:05:21.962Z,10.40
2023-02-23T07:07:50.066Z,10.40
2023-02-23T07:10:20.029Z,10.40
2023-02-23T07:12:48.629Z,10.40
2023-02-23T07:15:17.739Z,10.40
2023-02-23T07:17:48.651Z,10.40
2023-02-23T07:20:17.344Z,10.40
2023-02-23T07:22:45.992Z,10.50
2023-02-23T07:25:14.278Z,10.50
2023-02-23T07:27:45.323Z,10.50
2023-02-23T07:30:14.423Z,10.60
2023-02-23T07:32:42.802Z,10.60
2023-02-23T07:35:11.515Z,10.60
2023-02-23T07:37:39.878Z,10.70
2023-02-23T07:40:09.603Z,10.70
2023-02-23T07:42:37.858Z,10.70
2023-02-23T07:45:09.607Z,10.70
2023-02-23T07:47:39.336Z,10.80
2023-02-23T07:50:10.469Z,10.80
2023-02-23T07:52:40.459Z,10.80
2023-02-23T07:55:10.300Z,10.90
2023-02-23T07:57:39.587Z,10.90
2023-02-23T08:00:11.219Z,10.90
2023-02-23T08:02:42.554Z,10.90
2023-02-23T08:05:10.949Z,10.90
2023-02-23T08:07:39.218Z,10.90
2023-02-23T08:10:08.456Z,10.90
2023-02-23T08:12:37.047Z,10.90
2023-02-23T08:15:08.395Z,10.80
2023-02-23T08:17:38.723Z,10.90
2023-02-23T08:20:08.650Z,11.00
2023-02-23T08:22:48.552Z,11.00
2023-02-23T08:25:18.325Z,10.80
2023-02-23T08:27:46.616Z,10.90
2023-02-23T08:30:16.031Z,11.00
2023-02-23T08:32:45.910Z,11.00
2023-02-23T08:35:14.038Z,11.10
2023-02-23T08:37:43.098Z,11.10
2023-02-23T08:40:15.687Z,11.10
2023-02-23T08:42:44.055Z,11.10
2023-02-23T08:45:13.602Z,11.20
2023-02-23T08:47:42.286Z,11.20
2023-02-23T08:50:14.504Z,11.20
2023-02-23T08:52:43.551Z,11.20
2023-02-23T08:55:14.067Z,11.20
2023-02-23T08:57:42.380Z,11.30
2023-02-23T09:00:14.404Z,11.30
2023-02-23T09:02:42.773Z,11.30
2023-02-23T09:05:12.721Z,11.30
2023-02-23T09:07:44.933Z,11.30
2023-02-23T09:10:15.186Z,11.40
2023-02-23T09:12:43.365Z,11.40
2023-02-23T09:15:12.438Z,11.40
2023-02-23T09:17:43.003Z,11.40
2023-02-23T09:20:15.813Z,11.40
2023-02-23T09:22:45.520Z,11.40
2023-02-23T09:25:14.543Z,11.40
2023-02-23T09:27:42.672Z,11.40
2023-02-23T09:30:12.637Z,11.40
2023-02-23T09:32:40.768Z,11.50
2023-02-23T09:35:09.673Z,11.40
2023-02-23T09:37:39.332Z,11.40
2023-02-23T09:40:10.468Z,11.40
2023-02-23T09:42:49.051Z,11.40
2023-02-23T09:45:26.441Z,11.40
2023-02-23T09:48:10.504Z,11.50
2023-02-23T09:50:40.790Z,11.50
2023-02-23T09:53:22.355Z,11.50
2023-02-23T09:55:52.751Z,11.40
2023-02-23T09:58:24.008Z,11.50
2023-02-23T10:01:18.103Z,11.50
2023-02-23T10:03:55.457Z,11.50
2023-02-23T10:06:23.964Z,11.50
2023-02-23T10:09:04.649Z,11.50
2023-02-23T10:11:40.774Z,11.60
2023-02-23T10:14:27.158Z,11.60
2023-02-23T10:17:14.080Z,11.60
2023-02-23T10:19:50.154Z,11.80
2023-02-23T10:22:20.755Z,11.70
2023-02-23T10:24:54.442Z,11.70
2023-02-23T10:27:27.901Z,11.80
2023-02-23T10:29:57.728Z,11.90
2023-02-23T10:32:30.244Z,12.00
2023-02-23T10:34:58.591Z,12.00
2023-02-23T10:37:27.712Z,12.10
2023-02-23T10:39:57.309Z,12.10
2023-02-23T10:42:30.204Z,12.20
2023-02-23T10:44:59.101Z,12.20
2023-02-23T10:47:31.443Z,12.20
2023-02-23T10:50:01.533Z,12.20
2023-02-23T10:52:41.324Z,12.20
2023-02-23T10:55:24.643Z,12.30
2023-02-23T10:58:03.880Z,12.20
2023-02-23T11:00:34.063Z,12.20
2023-02-23T11:03:04.499Z,12.20
2023-02-23T11:05:38.164Z,12.40
2023-02-23T11:08:34.885Z,12.40
2023-02-23T11:11:08.346Z,12.40
2023-02-23T11:13:41.786Z,12.40
2023-02-23T11:16:13.390Z,12.40
2023-02-23T11:18:43.748Z,12.40
2023-02-23T11:21:22.389Z,12.50
2023-02-23T11:23:52.811Z,12.60
2023-02-23T11:26:28.786Z,12.50
2023-02-23T11:28:59.383Z,12.40
2023-02-23T11:31:33.326Z,12.60
2023-02-23T11:34:03.844Z,12.70
2023-02-23T11:36:34.295Z,12.80
2023-02-23T11:39:08.967Z,12.90
2023-02-23T11:41:38.756Z,13.00
2023-02-23T11:44:07.752Z,13.00
2023-02-23T11:46:39.744Z,13.00
2023-02-23T11:49:09.668Z,13.00
2023-02-23T11:51:40.268Z,13.00
2023-02-23T11:54:18.560Z,13.10
2023-02-23T11:56:55.011Z,12.90
2023-02-23T11:59:31.023Z,13.00
2023-02-23T12:02:06.932Z,12.90
2023-02-23T12:04:38.433Z,12.80
2023-02-23T12:07:37.442Z,12.90
2023-02-23T12:10:13.744Z,13.00
2023-02-23T12:12:52.486Z,13.10
2023-02-23T12:15:28.730Z,13.10
2023-02-23T12:18:01.971Z,13.10
2023-02-23T12:20:33.028Z,13.10
2023-02-23T12:23:06.954Z,13.10
2023-02-23T12:25:40.571Z,13.10
2023-02-23T12:28:19.633Z,13.10
2023-02-23T12:30:53.075Z,13.00
2023-02-23T12:33:26.142Z,13.10
2023-02-23T12:35:58.280Z,13.20
2023-02-23T12:38:33.296Z,13.10
2023-02-23T12:41:07.965Z,13.20
2023-02-23T12:43:51.333Z,13.20
2023-02-23T12:46:23.103Z,13.10
2023-02-23T12:49:01.719Z,13.20
2023-02-23T12:51:36.248Z,13.30
2023-02-23T12:54:05.853Z,13.40
2023-02-23T12:56:44.213Z,13.50
2023-02-23T12:59:27.767Z,13.50
2023-02-23T13:01:59.556Z,13.60
2023-02-23T13:05:16.451Z,13.70
2023-02-23T13:07:59.260Z,13.60
2023-02-23T13:10:47.178Z,13.60
2023-02-23T13:13:26.287Z,13.60
2023-02-23T13:16:07.059Z,13.70
2023-02-23T13:18:42.923Z,13.80
2023-02-23T13:21:19.790Z,13.80
2023-02-23T13:24:01.660Z,13.60
2023-02-23T13:26:38.952Z,13.60
2023-02-23T13:29:16.817Z,13.40
2023-02-23T13:31:46.941Z,13.50
2023-02-23T13:34:22.785Z,13.30
2023-02-23T13:36:51.676Z,13.30
2023-02-23T13:39:41.920Z,13.20
2023-02-23T13:42:28.079Z,13.10
2023-02-23T13:45:02.158Z,13.20
2023-02-23T13:47:45.563Z,13.20
2023-02-23T13:50:21.716Z,13.10
2023-02-23T13:52:50.092Z,13.00
2023-02-23T13:55:49.811Z,13.00
2023-02-23T13:58:22.530Z,13.10
2023-02-23T14:01:14.601Z,13.00
2023-02-23T14:03:58.868Z,13.00
2023-02-23T14:06:29.900Z,13.00
2023-02-23T14:09:01.145Z,13.00
2023-02-23T14:11:44.115Z,13.00
2023-02-23T14:14:17.057Z,13.10
2023-02-23T14:17:05.585Z,13.10
2023-02-23T14:19:40.148Z,13.20
2023-02-23T14:22:11.703Z,13.30
2023-02-23T14:24:40.491Z,13.40
2023-02-23T14:27:42.055Z,13.40
2023-02-23T14:30:22.387Z,13.20
2023-02-23T14:32:53.730Z,13.00
2023-02-23T14:35:45.045Z,13.00
2023-02-23T14:38:25.278Z,13.10
2023-02-23T14:40:55.690Z,13.20
2023-02-23T14:43:45.608Z,13.30
2023-02-23T14:46:19.818Z,13.30
2023-02-23T14:48:59.808Z,13.20
2023-02-23T14:51:39.930Z,13.10
2023-02-23T14:54:15.723Z,13.00
2023-02-23T14:56:47.990Z,13.00
2023-02-23T14:59:21.982Z,13.00
2023-02-23T15:01:51.439Z,13.10
2023-02-23T15:04:22.486Z,13.10
2023-02-23T15:06:56.228Z,13.20
2023-02-23T15:09:33.942Z,13.20
2023-02-23T15:12:12.899Z,13.20
2023-02-23T15:14:42.384Z,13.20
2023-02-23T15:17:17.245Z,13.20
2023-02-23T15:19:47.674Z,13.20
2023-02-23T15:22:25.180Z,13.10
2023-02-23T15:24:53.368Z,13.10
2023-02-23T15:27:26.865Z,13.10
2023-02-23T15:29:55.528Z,13.00
2023-02-23T15:32:25.467Z,13.00
2023-02-23T15:34:55.539Z,13.20
2023-02-23T15:37:31.817Z,13.30
2023-02-23T15:40:02.541Z,13.30
2023-02-23T15:42:37.381Z,13.20
2023-02-23T15:45:15.061Z,13.30
2023-02-23T15:47:44.209Z,13.20
2023-02-23T15:50:27.586Z,13.20
2023-02-23T15:53:05.023Z,13.10
2023-02-23T15:55:36.699Z,13.20
2023-02-23T15:58:18.824Z,13.20
2023-02-23T16:00:52.582Z,13.20
2023-02-23T16:03:25.487Z,13.10
2023-02-23T16:06:03.193Z,13.00
2023-02-23T16:08:34.326Z,12.80
2023-02-23T16:11:11.975Z,12.80
2023-02-23T16:13:45.240Z,12.90
2023-02-23T16:16:19.437Z,12.90
2023-02-23T16:18:52.660Z,12.90
2023-02-23T16:21:24.348Z,12.90
2023-02-23T16:23:55.529Z,12.90
2023-02-23T16:26:28.967Z,12.80
2023-02-23T16:29:00.232Z,12.90
2023-02-23T16:31:43.461Z,12.70
2023-02-23T16:34:25.057Z,12.70
2023-02-23T16:36:58.877Z,12.60
2023-02-23T16:39:30.375Z,12.40
2023-02-23T16:41:59.953Z,12.40
2023-02-23T16:44:41.384Z,12.40
2023-02-23T16:47:36.338Z,12.30
2023-02-23T16:50:20.208Z,12.30
2023-02-23T16:52:51.977Z,12.20
2023-02-23T16:55:26.176Z,12.20
2023-02-23T16:57:57.512Z,12.10
2023-02-23T17:00:28.721Z,12.10
2023-02-23T17:02:58.913Z,12.00
2023-02-23T17:05:27.927Z,11.90
2023-02-23T17:07:58.301Z,11.70
2023-02-23T17:10:31.115Z,11.80
2023-02-23T17:13:04.446Z,12.10
2023-02-23T17:15:36.078Z,12.40
2023-02-23T17:18:05.082Z,12.50
2023-02-23T17:20:33.832Z,12.50
2023-02-23T17:23:03.637Z,12.60
2023-02-23T17:25:33.869Z,12.60
2023-02-23T17:28:02.649Z,12.60
2023-02-23T17:30:31.499Z,12.60
2023-02-23T17:33:00.855Z,12.60
2023-02-23T17:35:33.772Z,12.60
2023-02-23T17:38:02.309Z,12.50
2023-02-23T17:40:36.352Z,12.50
2023-02-23T17:43:08.674Z,12.50
2023-02-23T17:45:36.913Z,12.40
2023-02-23T17:48:05.290Z,12.40
2023-02-23T17:50:33.391Z,12.40
2023-02-23T17:53:01.545Z,12.30
2023-02-23T17:55:29.734Z,12.30
2023-02-23T17:57:59.236Z,12.30
2023-02-23T18:00:28.593Z,12.20
2023-02-23T18:02:56.809Z,12.20
2023-02-23T18:05:25.042Z,12.10
2023-02-23T18:07:53.233Z,12.00
2023-02-23T18:10:25.525Z,12.00
2023-02-23T18:12:53.927Z,12.00
2023-02-23T18:15:23.402Z,11.90
2023-02-23T18:17:54.519Z,11.90
2023-02-23T18:20:23.077Z,11.90
2023-02-23T18:22:51.354Z,11.90
2023-02-23T18:25:25.872Z,11.90
2023-02-23T18:27:55.212Z,11.80
2023-02-23T18:30:27.234Z,11.80
2023-02-23T18:32:57.857Z,11.70
2023-02-23T18:35:26.362Z,11.70
2023-02-23T18:37:54.678Z,11.60
2023-02-23T18:40:23.729Z,11.60
2023-02-23T18:42:52.023Z,11.60
2023-02-23T18:45:20.230Z,11.60
2023-02-23T18:47:49.873Z,11.50
2023-02-23T18:50:19.869Z,11.50
2023-02-23T18:52:49.107Z,11.50
2023-02-23T18:55:18.112Z,11.40
2023-02-23T18:57:47.217Z,11.40
2023-02-23T19:00:16.793Z,11.40
2023-02-23T19:02:46.356Z,11.40
2023-02-23T19:05:19.554Z,11.30
2023-02-23T19:07:48.893Z,11.30
2023-02-23T19:10:17.292Z,11.30
2023-02-23T19:12:45.645Z,11.30
2023-02-23T19:15:14.222Z,11.30
2023-02-23T19:17:42.390Z,11.20
2023-02-23T19:20:14.775Z,11.20
2023-02-23T19:22:45.791Z,11.20
2023-02-23T19:25:15.290Z,11.20
2023-02-23T19:27:44.169Z,11.20
2023-02-23T19:30:14.642Z,11.30
2023-02-23T19:32:44.225Z,11.20
2023-02-23T19:35:15.165Z,11.20
2023-02-23T19:37:49.100Z,11.20
2023-02-23T19:40:22.091Z,11.20
2023-02-23T19:42:53.091Z,11.10
2023-02-23T19:45:21.889Z,11.10
2023-02-23T19:47:53.045Z,11.10
2023-02-23T19:50:21.601Z,11.10
2023-02-23T19:52:51.350Z,11.10
2023-02-23T19:55:20.853Z,11.10
2023-02-23T19:57:49.017Z,11.00
2023-02-23T20:00:18.024Z,11.00
2023-02-23T20:02:47.956Z,11.00
2023-02-23T20:05:17.932Z,11.00
2023-02-23T20:07:46.110Z,10.90
2023-02-23T20:10:16.866Z,10.90
2023-02-23T20:12:45.247Z,10.90
2023-02-23T20:15:14.902Z,10.80
2023-02-23T20:17:43.122Z,10.80
2023-02-23T20:20:12.788Z,10.70
2023-02-23T20:22:43.336Z,10.70
2023-02-23T20:25:15.901Z,10.70
2023-02-23T20:27:45.889Z,10.70
2023-02-23T20:30:14.979Z,10.70
2023-02-23T20:32:43.783Z,10.70
2023-02-23T20:35:14.307Z,10.70
2023-02-23T20:37:42.555Z,10.60
2023-02-23T20:40:18.805Z,10.60
2023-02-23T20:42:50.711Z,10.60
2023-02-23T20:45:21.616Z,10.60
2023-02-23T20:47:53.754Z,10.60
2023-02-23T20:50:23.343Z,10.60
2023-02-23T20:52:52.078Z,10.60
2023-02-23T20:55:20.522Z,10.60
2023-02-23T20:57:49.956Z,10.60
2023-02-23T21:00:22.652Z,10.60
2023-02-23T21:02:55.581Z,10.70
2023-02-23T21:05:25.322Z,10.70
2023-02-23T21:07:55.481Z,10.70
2023-02-23T21:10:23.806Z,10.70
2023-02-23T21:12:54.043Z,10.70
2023-02-23T21:15:22.089Z,10.70
2023-02-23T21:17:50.635Z,10.70
2023-02-23T21:20:20.945Z,10.60
2023-02-23T21:22:50.214Z,10.60
2023-02-23T21:25:19.353Z,10.60
2023-02-23T21:27:48.039Z,10.60
2023-02-23T21:30:20.502Z,10.60
2023-02-23T21:32:49.654Z,10.60
2023-02-23T21:35:18.578Z,10.60
2023-02-23T21:37:47.433Z,10.60
2023-02-23T21:40:17.387Z,10.60
2023-02-23T21:42:45.467Z,10.60
2023-02-23T21:45:14.443Z,10.70
2023-02-23T21:47:45.768Z,10.70
2023-02-23T21:50:16.460Z,10.70
2023-02-23T21:52:47.065Z,10.80
2023-02-23T21:55:21.455Z,10.70
2023-02-23T21:57:50.714Z,10.60
2023-02-23T22:00:21.534Z,10.50
2023-02-23T22:02:51.839Z,10.40
2023-02-23T22:05:20.898Z,10.50
2023-02-23T22:07:50.539Z,10.60
2023-02-23T22:10:19.748Z,10.60
2023-02-23T22:12:50.248Z,10.70
2023-02-23T22:15:18.533Z,10.70
2023-02-23T22:17:46.706Z,10.50
2023-02-23T22:20:20.166Z,10.60
2023-02-23T22:22:50.320Z,10.40
2023-02-23T22:25:20.211Z,10.40
2023-02-23T22:27:49.048Z,10.50
2023-02-23T22:30:20.231Z,10.50
2023-02-23T22:32:48.513Z,10.60
2023-02-23T22:35:18.378Z,10.60
2023-02-23T22:37:46.557Z,10.60
2023-02-23T22:40:16.672Z,10.60
2023-02-23T22:42:48.183Z,10.60
2023-02-23T22:45:17.364Z,10.60
2023-02-23T22:47:46.071Z,10.60
2023-02-23T22:50:17.815Z,10.60
2023-02-23T22:52:47.918Z,10.60
2023-02-23T22:55:16.191Z,10.60
2023-02-23T22:57:46.043Z,10.60
2023-02-23T23:00:17.524Z,10.60
2023-02-23T23:02:45.850Z,10.60
2023-02-23T23:05:14.614Z,10.60
2023-02-23T23:07:46.452Z,10.60
2023-02-23T23:10:17.618Z,10.50
2023-02-23T23:12:46.407Z,10.50
2023-02-23T23:15:17.292Z,10.50
2023-02-23T23:17:48.431Z,10.50
2023-02-23T23:20:19.312Z,10.40
2023-02-23T23:22:49.910Z,10.40
2023-02-23T23:25:22.967Z,10.40
2023-02-23T23:27:53.623Z,10.20
2023-02-23T23:30:26.029Z,10.10
2023-02-23T23:32:54.590Z,10.10
2023-02-23T23:35:23.353Z,10.20
2023-02-23T23:37:52.054Z,10.20
2023-02-23T23:40:24.353Z,10.10
2023-02-23T23:42:53.225Z,9.90
2023-02-23T23:45:25.161Z,9.90
2023-02-23T23:47:53.393Z,10.10
2023-02-23T23:50:26.645Z,10.10
2023-02-23T23:52:55.490Z,10.20
2023-02-23T23:55:24.983Z,10.20
2023-02-23T23:57:53.238Z,10.20
